x

South Georgian Bay (45143) Wave Buoy

2:00am - Fri 31st Oct 2014 All times are CDT. -5 hours from GMT.

  • Sig Wave height 2.0ft
  • Peak Period 3s
  • Wind
    18mph, 22mph gusts
  • Sea Temp 51°f
  • Air Temp 45°f
  • Sea Pressure 1013.2mb
  • South Georgian Bay
  • South Georgian Bay

More Historic Weather Station data

Upgrade to MSW Pro to gain access to the past 30 days of data for over 8000 Wavebouys and Weather Stations around the globe.

Join Pro

Comparision Forecast

View Surf forecast
   
Fri 10/31 2:00am 2ft 3s 18 22 mph 1013.2mb 51f 45f
1:00am 1.6ft 3s 16 18 mph 1013.6mb 51f 44f
12:00am 1.3ft 3s 13 16 mph 1014.3mb 51f 44f
Thu 10/30 11:00pm 1ft 3s 11 16 mph 1014.9mb 51f 44f
10:00pm 1ft 2s 11 13 mph 1015.5mb 51f 44f
9:00pm 0.7ft 2s 9 13 mph 1016.2mb 51f 44f
8:00pm 0.7ft 3s 7 9 mph 1016.8mb 51f 44f
7:00pm 0.7ft 3s 4 7 mph 1017.3mb 51f 43f
6:00pm 1ft 3s 4 7 mph 1017.5mb 51f 43f
5:00pm 1.3ft 3s 4 9 mph 1017.7mb 52f 44f
4:00pm 1ft 3s 7 9 mph 1017.6mb 52f 44f
3:00pm 1ft 3s 9 13 mph 1017.6mb 51f 43f
2:00pm 1ft 3s 9 11 mph 1017.6mb 52f 43f
1:00pm 1.3ft 3s 9 11 mph 1017.9mb 52f 44f
12:00pm 1.3ft 3s 9 13 mph 1018.3mb 52f 43f
11:00am 1.3ft 4s 4 9 mph 1018.7mb 52f 43f
10:00am 1.6ft 4s 9 11 mph 1018.8mb 51f 43f
9:00am 1.6ft 4s 11 13 mph 1018.7mb 51f 43f
8:00am 2ft 4s 9 11 mph 1018.7mb 51f 42f
7:00am 2ft 4s 11 16 mph 1018.3mb 51f 43f
6:00am 2ft 4s 11 16 mph 1017.7mb 51f 43f
5:00am 2ft 4s 11 13 mph 1017.7mb 51f 42f
4:00am 2.5ft 5s 11 20 mph 1017.2mb 51f 43f
3:00am 2.5ft 5s 11 13 mph 1016.8mb 51f 43f
2:00am 3ft 5s 13 16 mph 1016.5mb 51f 44f
1:00am 3.5ft 5s 13 18 mph 1016.3mb 51f 44f
12:00am 3.5ft 5s 16 18 mph 1015.9mb 51f 45f
Wed 10/29 11:00pm 4ft 5s 13 18 mph 1015.7mb 51f 45f
10:00pm 4ft 5s 16 20 mph 1015.3mb 51f 45f
9:00pm 4.5ft 5s 20 25 mph 1014.9mb 51f 45f
7:00pm 4.5ft 5s 22 27 mph 1013.6mb 51f 46f
6:00pm 5ft 5s 20 25 mph 1013mb 51f 47f
5:00pm 5ft 5s 25 27 mph 1012.1mb 51f 47f
4:00pm 5ft 5s 25 31 mph 1011.2mb 51f 47f
3:00pm 5ft 5s 25 31 mph 1010.7mb 51f 47f
2:00pm 4.5ft 5s 22 29 mph 1010.2mb 52f 47f
1:00pm 4.5ft 5s 20 25 mph 1009.9mb 52f 47f
12:00pm 4.5ft 5s 22 27 mph 1009.8mb 51f 48f
11:00am 4.5ft 5s 18 22 mph 1009.7mb 52f 48f
10:00am 4.5ft 4s 25 31 mph 1009.4mb 52f 49f
9:00am 4.5ft 4s 25 31 mph 1008.8mb 52f 49f
8:00am 3.5ft 4s 22 31 mph 1008.7mb 52f 50f
7:00am 3.5ft 4s 22 29 mph 1008.6mb 52f 50f
6:00am 3.5ft 4s 22 27 mph 1008.3mb 52f 50f
5:00am 3.5ft 4s 22 27 mph 1008.4mb 52f 50f
4:00am 2.5ft 4s 20 25 mph 1008.4mb 52f 50f
3:00am 2.5ft 4s 18 25 mph 1008.4mb 52f 50f
2:00am 2.5ft 4s 20 25 mph 1008.1mb 52f 50f
1:00am 2.5ft 4s 18 22 mph 1008.1mb 52f 51f
12:00am 2ft 3s 20 25 mph 1007.7mb 52f 52f
Tue 10/28 11:00pm 1.3ft 3s 18 20 mph 1007.6mb 52f 53f
10:00pm 1.3ft 3s 13 20 mph 1007.5mb 52f 53f
9:00pm 1.3ft 3s 11 13 mph 1007.2mb 52f 53f
8:00pm 1.6ft 3s 9 11 mph 1007.1mb 52f 53f
7:00pm 2.5ft 4s 11 13 mph 1006.5mb 52f 54f
6:00pm 3ft 4s 11 13 mph 1006.3mb 52f 54f
5:00pm 2.5ft 4s 18 22 mph 1005.5mb 52f 55f
4:00pm 2.5ft 4s 20 25 mph 1004.4mb 52f 55f
3:00pm 2.5ft 4s 13 16 mph 1003.6mb 52f 55f
2:00pm 3ft 4s 16 20 mph 1003.1mb 52f 56f
1:00pm 2.5ft 4s 18 20 mph 1002mb 52f 58f
12:00pm 2.5ft 4s 18 22 mph 1001.8mb 52f 58f
11:00am 2.5ft 4s 16 18 mph 1002.6mb 52f 57f
10:00am 2.5ft 4s 11 13 mph 1003.2mb 52f 56f
9:00am 2.5ft 4s 11
mph
1003.6mb 52f 54f
8:00am 2.5ft 4s 18 22 mph 1003.8mb 52f 58f
7:00am 3.5ft 5s 13 18 mph 1004.1mb 52f 54f
6:00am 3.5ft 5s 18 20 mph 1003.7mb 52f 54f
5:00am 3.5ft 5s 18 22 mph 1004.2mb 52f 53f
4:00am 4ft 5s 18 20 mph 1004.6mb 52f 52f
3:00am 4.5ft 5s 20 22 mph 1005mb 52f 51f
2:00am 4.5ft 5s 22 27 mph 1005.9mb 52f 51f
1:00am 5ft 5s 22 29 mph 1006.3mb 52f 50f
12:00am 4.5ft 5s 25 31 mph 1006.8mb 52f 50f
Mon 10/27 11:00pm 4.5ft 5s 25 29 mph 1007.7mb 52f 49f
10:00pm 4.5ft 4s 25 31 mph 1008.1mb 52f 50f
9:00pm 3.5ft 5s 22 27 mph 1008.8mb 52f 50f
8:00pm 3.5ft 4s 25 29 mph 1008.9mb 52f 50f
7:00pm 3ft 4s 22 27 mph 1009.1mb 52f 51f
6:00pm 3.5ft 4s 20 22 mph 1010.5mb 52f 50f
5:00pm 2.5ft 4s 25 29 mph 1008.9mb 52f 50f
4:00pm 2.5ft 4s 18 22 mph 1010.6mb 52f 51f
3:00pm 2ft 4s 18 20 mph 1011.4mb 52f 51f
2:00pm 1.6ft 4s 13 16 mph 1012.9mb 52f 50f
1:00pm 1.6ft 3s 16 18 mph 1013mb 52f 48f
12:00pm 1.6ft 3s 13 16 mph 1014.1mb 52f 47f
11:00am 1.3ft 3s 13 16 mph 1014.8mb 52f 46f
10:00am 1ft 2s 13 16 mph 1015.6mb 52f 45f
9:00am 1ft 2s 11 13 mph 1016mb 52f 45f